Time;durP1;ratioP1;P1;durP2;ratioP2;P2;SDS_P1;SDS_P2;PMS_P1;PMS_P2;Temp;Humidity;BMP_temperature;BMP_pressure;BME280_temperature;BME280_humidity;BME280_pressure;Samples;Min_cycle;Max_cycle;Signal;HPM_P1;HPM_P2
2021/10/23 00:00:10;;;;;;;1.63;1.00;;;5.90;99.90;;;;;;5093948;28;20231;-70
2021/10/23 00:02:36;;;;;;;0.80;0.63;;;5.70;99.90;;;;;;5093467;28;20218;-69
2021/10/23 00:05:02;;;;;;;5.90;1.10;;;5.90;99.90;;;;;;5091161;28;20985;-70
2021/10/23 00:07:27;;;;;;;1.00;0.90;;;5.80;99.90;;;;;;5073264;28;20205;-70
2021/10/23 00:09:52;;;;;;;1.10;1.00;;;5.70;99.90;;;;;;5075481;28;20462;-69
2021/10/23 00:12:18;;;;;;;3.53;0.90;;;5.70;99.90;;;;;;5093326;28;20174;-69
2021/10/23 00:14:43;;;;;;;3.27;0.80;;;5.80;99.90;;;;;;5093358;28;20170;-69
2021/10/23 00:17:09;;;;;;;1.43;0.80;;;5.80;99.90;;;;;;5093065;28;20197;-70
2021/10/23 00:19:34;;;;;;;5.83;0.93;;;5.80;99.90;;;;;;5093443;28;20181;-70
2021/10/23 00:22:00;;;;;;;1.83;1.10;;;5.70;99.90;;;;;;5091438;28;20545;-70
2021/10/23 00:24:26;;;;;;;9.50;1.53;;;5.70;99.90;;;;;;5073716;28;20174;-71
2021/10/23 00:26:51;;;;;;;1.80;1.10;;;5.80;99.90;;;;;;5078295;28;20204;-70
2021/10/23 00:29:17;;;;;;;5.90;1.00;;;5.80;99.90;;;;;;5093215;28;20201;-71
2021/10/23 00:31:42;;;;;;;1.47;0.93;;;5.80;99.90;;;;;;5093029;28;20226;-70
2021/10/23 00:34:08;;;;;;;2.40;1.40;;;5.80;99.90;;;;;;5093142;28;20165;-70
2021/10/23 00:36:34;;;;;;;3.53;1.67;;;5.80;99.90;;;;;;5092902;28;20174;-70
2021/10/23 00:38:59;;;;;;;2.40;1.07;;;5.70;99.90;;;;;;5093083;28;20184;-69
2021/10/23 00:41:25;;;;;;;1.10;1.00;;;5.70;99.90;;;;;;5092881;28;20238;-70
2021/10/23 00:43:50;;;;;;;1.20;1.10;;;5.70;99.90;;;;;;5092981;28;20177;-70
2021/10/23 00:46:16;;;;;;;2.60;1.70;;;5.70;99.90;;;;;;5092965;28;20204;-70
2021/10/23 00:48:42;;;;;;;1.50;1.30;;;5.70;99.90;;;;;;5092718;28;20189;-70
2021/10/23 00:51:15;;;;;;;5.53;1.63;;;5.70;99.90;;;;;;5092211;28;20315;-70
2021/10/23 00:53:42;;;;;;;3.83;1.80;;;5.70;99.90;;;;;;5092891;28;21075;-70
2021/10/23 00:56:08;;;;;;;0.70;0.70;;;5.60;99.90;;;;;;5092648;28;20488;-70
2021/10/23 00:58:34;;;;;;;2.00;1.03;;;5.70;99.90;;;;;;5092565;28;20549;-70
2021/10/23 01:01:00;;;;;;;4.90;1.07;;;5.60;99.90;;;;;;5091477;28;20985;-70
2021/10/23 01:03:25;;;;;;;1.73;0.80;;;5.50;99.90;;;;;;5091579;28;20192;-70
2021/10/23 01:05:52;;;;;;;1.23;1.13;;;5.70;99.90;;;;;;5092387;28;21145;-72
2021/10/23 01:08:17;;;;;;;1.87;1.60;;;5.60;99.90;;;;;;5089206;28;20201;-70
2021/10/23 01:10:43;;;;;;;1.70;1.47;;;5.50;99.90;;;;;;5099241;28;20414;-70
2021/10/23 01:13:10;;;;;;;1.57;1.47;;;5.60;99.90;;;;;;5085525;28;20196;-70
2021/10/23 01:15:35;;;;;;;1.17;1.00;;;5.60;99.90;;;;;;5078276;28;20667;-70
2021/10/23 01:18:03;;;;;;;2.20;2.10;;;5.50;99.90;;;;;;5092161;28;20518;-71
2021/10/23 01:20:30;;;;;;;10.23;1.00;;;5.50;99.90;;;;;;5083375;28;20224;-69
2021/10/23 01:22:56;;;;;;;3.13;2.27;;;5.70;99.90;;;;;;5072043;28;20440;-69
2021/10/23 01:25:25;;;;;;;1.43;1.33;;;5.70;99.90;;;;;;5072042;28;20479;-70
2021/10/23 01:27:55;;;;;;;3.43;1.30;;;5.60;99.90;;;;;;5071893;28;20847;-70
2021/10/23 01:30:23;;;;;;;1.20;0.90;;;5.60;99.90;;;;;;5071923;28;20405;-70
2021/10/23 01:32:49;;;;;;;1.57;1.03;;;5.60;99.90;;;;;;5077421;28;20407;-70
2021/10/23 01:35:15;;;;;;;1.00;0.93;;;5.60;99.90;;;;;;5091885;28;20889;-69
2021/10/23 01:37:46;;;;;;;2.07;1.13;;;5.50;99.90;;;;;;5091954;28;20427;-71
2021/10/23 01:40:16;;;;;;;1.13;1.07;;;5.60;99.90;;;;;;5092000;28;20641;-70
2021/10/23 01:42:41;;;;;;;2.60;1.30;;;5.50;99.90;;;;;;5091654;28;20499;-70
2021/10/23 01:45:08;;;;;;;1.33;0.83;;;5.60;99.90;;;;;;5091896;28;20431;-70
2021/10/23 01:47:34;;;;;;;1.40;1.03;;;5.60;99.90;;;;;;5091804;28;20813;-70
2021/10/23 01:50:00;;;;;;;1.77;1.37;;;5.70;99.90;;;;;;5091891;28;20451;-70
2021/10/23 01:52:27;;;;;;;0.93;0.90;;;5.60;99.90;;;;;;5092082;28;20648;-70
2021/10/23 01:54:52;;;;;;;1.87;1.77;;;5.50;99.90;;;;;;5091859;28;20477;-70
2021/10/23 01:57:18;;;;;;;7.80;1.50;;;5.50;99.90;;;;;;5091826;28;20452;-70
2021/10/23 01:59:44;;;;;;;1.40;1.30;;;5.60;99.90;;;;;;5091933;28;20170;-70
2021/10/23 02:02:09;;;;;;;2.63;1.90;;;5.50;99.90;;;;;;5091686;28;20418;-70
2021/10/23 02:04:34;;;;;;;1.40;1.07;;;5.60;99.90;;;;;;5095266;28;20200;-70
2021/10/23 02:07:00;;;;;;;1.10;1.00;;;5.60;99.90;;;;;;5096006;28;20243;-70
2021/10/23 02:09:26;;;;;;;2.50;1.53;;;5.60;99.90;;;;;;5096051;28;20251;-70
2021/10/23 02:11:51;;;;;;;1.63;1.20;;;5.60;99.90;;;;;;5095760;28;20172;-70
2021/10/23 02:14:19;;;;;;;1.23;1.13;;;5.70;99.90;;;;;;5095691;28;20166;-70
2021/10/23 02:16:44;;;;;;;1.47;1.37;;;5.70;99.90;;;;;;5095793;28;20720;-70
2021/10/23 02:19:10;;;;;;;2.27;1.80;;;5.50;99.90;;;;;;5095619;28;20529;-70
2021/10/23 02:21:35;;;;;;;1.30;1.20;;;5.60;99.90;;;;;;5095689;28;20174;-70
2021/10/23 02:24:01;;;;;;;2.53;1.87;;;5.50;99.90;;;;;;5095564;28;20212;-70
2021/10/23 02:26:26;;;;;;;1.30;1.20;;;5.70;99.90;;;;;;5094249;28;20618;-70
2021/10/23 02:28:52;;;;;;;1.63;1.03;;;5.60;99.90;;;;;;5095246;28;20201;-73
2021/10/23 02:31:17;;;;;;;1.83;1.20;;;5.60;99.90;;;;;;5095535;28;20827;-70
2021/10/23 02:33:43;;;;;;;2.40;1.53;;;5.60;99.90;;;;;;5095351;28;20172;-70
2021/10/23 02:36:08;;;;;;;3.40;1.37;;;5.70;99.90;;;;;;5095496;28;20162;-71
2021/10/23 02:38:37;;;;;;;10.27;1.30;;;5.70;99.90;;;;;;5095328;28;20401;-71
2021/10/23 02:41:02;;;;;;;1.37;1.27;;;5.60;99.90;;;;;;5095158;28;20162;-71
2021/10/23 02:43:28;;;;;;;3.23;1.50;;;5.60;99.90;;;;;;5095172;28;20399;-70
2021/10/23 02:45:53;;;;;;;1.73;1.20;;;5.50;99.90;;;;;;5095179;28;20241;-69
2021/10/23 02:48:19;;;;;;;1.10;1.10;;;5.60;99.90;;;;;;5094778;28;20346;-70
2021/10/23 02:50:45;;;;;;;1.77;1.67;;;5.50;99.90;;;;;;5094837;28;20166;-70
2021/10/23 02:53:11;;;;;;;1.20;1.10;;;5.60;99.90;;;;;;5094758;28;20249;-69
2021/10/23 02:55:36;;;;;;;1.50;1.40;;;5.60;99.90;;;;;;5094474;28;20490;-69
2021/10/23 02:58:02;;;;;;;2.07;1.50;;;5.50;99.90;;;;;;5094648;28;20694;-70
2021/10/23 03:00:28;;;;;;;3.07;1.60;;;5.60;99.90;;;;;;5094651;28;20701;-70
2021/10/23 03:02:53;;;;;;;3.50;1.57;;;5.60;99.90;;;;;;5094356;28;20201;-70
2021/10/23 03:05:19;;;;;;;3.70;1.50;;;5.60;99.90;;;;;;5094455;28;20169;-70
2021/10/23 03:07:45;;;;;;;1.90;1.23;;;5.70;99.90;;;;;;5094417;28;20182;-70
2021/10/23 03:10:12;;;;;;;3.33;1.20;;;5.70;99.90;;;;;;5094517;28;20208;-71
2021/10/23 03:12:37;;;;;;;1.93;1.30;;;5.70;99.90;;;;;;5093424;28;20400;-71
2021/10/23 03:15:04;;;;;;;6.63;2.00;;;5.80;99.90;;;;;;5093575;28;20969;-71
2021/10/23 03:17:29;;;;;;;0.90;0.90;;;5.80;99.90;;;;;;5094541;28;20684;-71
2021/10/23 03:19:57;;;;;;;1.53;1.43;;;5.80;99.90;;;;;;5094297;28;20411;-70
2021/10/23 03:22:22;;;;;;;3.23;1.43;;;5.70;99.90;;;;;;5093960;28;20525;-71
2021/10/23 03:24:48;;;;;;;4.60;1.80;;;5.70;99.90;;;;;;5093919;28;20403;-69
2021/10/23 03:27:14;;;;;;;1.57;1.43;;;5.70;99.90;;;;;;5094113;28;20190;-70
2021/10/23 03:29:40;;;;;;;6.20;2.90;;;5.60;99.90;;;;;;5093270;28;20703;-70
2021/10/23 03:32:05;;;;;;;2.40;1.07;;;5.60;99.90;;;;;;5090643;28;20408;-70
2021/10/23 03:34:31;;;;;;;3.33;1.10;;;5.50;99.90;;;;;;5093718;28;20408;-70
2021/10/23 03:36:56;;;;;;;1.00;0.90;;;5.60;99.90;;;;;;5093944;28;20186;-70
2021/10/23 03:39:22;;;;;;;0.90;0.90;;;5.50;99.90;;;;;;5093838;28;20184;-70
2021/10/23 03:41:47;;;;;;;0.80;0.80;;;5.50;99.90;;;;;;5093839;28;20244;-71
2021/10/23 03:44:13;;;;;;;1.30;1.00;;;5.50;99.90;;;;;;5090688;28;20236;-71
2021/10/23 03:46:41;;;;;;;3.60;1.30;;;5.50;99.90;;;;;;5084863;28;20208;-69
2021/10/23 03:49:06;;;;;;;1.53;1.43;;;5.50;99.90;;;;;;5073433;28;20186;-70
2021/10/23 03:51:32;;;;;;;1.57;1.20;;;5.50;99.90;;;;;;5073338;28;20409;-70
2021/10/23 03:53:57;;;;;;;2.30;1.57;;;5.50;99.90;;;;;;5073098;28;20162;-70
2021/10/23 03:56:23;;;;;;;1.33;1.10;;;5.50;99.90;;;;;;5073308;28;20253;-70
2021/10/23 03:58:50;;;;;;;2.70;1.63;;;5.50;99.90;;;;;;5073241;28;20197;-70
2021/10/23 04:01:16;;;;;;;1.43;1.33;;;5.50;99.90;;;;;;5073120;28;20239;-70
2021/10/23 04:03:41;;;;;;;1.10;1.00;;;5.60;99.90;;;;;;5085852;28;20407;-70
2021/10/23 04:06:07;;;;;;;1.27;1.17;;;5.60;99.90;;;;;;5093266;28;20181;-69
2021/10/23 04:08:32;;;;;;;4.30;2.60;;;5.60;99.90;;;;;;5093329;28;20197;-70
2021/10/23 04:10:58;;;;;;;4.10;1.60;;;5.70;99.90;;;;;;5093401;28;20278;-69
2021/10/23 04:13:24;;;;;;;2.53;2.03;;;5.80;99.90;;;;;;5093147;28;20231;-70
2021/10/23 04:15:49;;;;;;;1.67;1.57;;;5.70;99.90;;;;;;5093122;28;20219;-70
2021/10/23 04:18:15;;;;;;;3.57;2.00;;;5.70;99.90;;;;;;5093088;28;20439;-69
2021/10/23 04:20:44;;;;;;;11.77;4.10;;;5.80;99.90;;;;;;5093225;28;20268;-70
2021/10/23 04:23:10;;;;;;;6.27;2.03;;;5.70;99.90;;;;;;5091581;28;20181;-69
2021/10/23 04:25:35;;;;;;;2.20;2.00;;;5.70;99.90;;;;;;5090884;28;20411;-70
2021/10/23 04:28:01;;;;;;;2.37;2.17;;;5.70;99.90;;;;;;5092551;28;20189;-70
2021/10/23 04:30:26;;;;;;;4.40;1.47;;;5.80;99.90;;;;;;5092339;28;20698;-70
2021/10/23 04:32:52;;;;;;;1.50;1.40;;;5.70;99.90;;;;;;5091763;28;20586;-70
2021/10/23 04:35:17;;;;;;;1.30;1.20;;;5.70;99.90;;;;;;5092566;28;20158;-70
2021/10/23 04:37:43;;;;;;;1.93;1.83;;;5.70;99.90;;;;;;5092363;28;20888;-70
2021/10/23 04:40:09;;;;;;;1.63;1.20;;;5.60;99.90;;;;;;5092678;28;20579;-70
2021/10/23 04:42:35;;;;;;;2.83;2.37;;;5.70;99.90;;;;;;5092704;28;20174;-70
2021/10/23 04:45:00;;;;;;;1.40;1.30;;;5.60;99.90;;;;;;5092451;28;20427;-68
2021/10/23 04:47:26;;;;;;;3.40;1.97;;;5.60;99.90;;;;;;5091193;28;20182;-71
2021/10/23 04:49:51;;;;;;;2.17;1.20;;;5.60;99.90;;;;;;5092439;28;20201;-68
2021/10/23 04:52:17;;;;;;;1.40;1.30;;;5.60;99.90;;;;;;5092146;28;20166;-69
2021/10/23 04:54:42;;;;;;;3.57;1.70;;;5.60;99.90;;;;;;5092145;28;20162;-69
2021/10/23 04:57:08;;;;;;;2.47;1.63;;;5.60;99.90;;;;;;5092309;28;20544;-69
2021/10/23 04:59:33;;;;;;;1.47;1.20;;;5.50;99.90;;;;;;5092404;28;20162;-69
2021/10/23 05:01:58;;;;;;;2.20;1.87;;;5.60;99.90;;;;;;5092097;28;20542;-69
2021/10/23 05:04:24;;;;;;;1.53;1.43;;;5.60;99.90;;;;;;5092068;28;20178;-69
2021/10/23 05:06:49;;;;;;;3.37;2.43;;;5.60;99.90;;;;;;5091910;28;20862;-69
2021/10/23 05:09:15;;;;;;;7.63;2.60;;;5.50;99.90;;;;;;5091946;28;20212;-69
2021/10/23 05:11:40;;;;;;;1.53;1.43;;;5.50;99.90;;;;;;5091991;28;20202;-69
2021/10/23 05:14:06;;;;;;;2.20;1.20;;;5.50;99.90;;;;;;5091855;28;20170;-69
2021/10/23 05:16:31;;;;;;;5.10;1.83;;;5.50;99.90;;;;;;5091861;28;20208;-69
2021/10/23 05:18:57;;;;;;;1.63;1.53;;;5.40;99.90;;;;;;5091697;28;20197;-69
2021/10/23 05:21:22;;;;;;;5.60;1.93;;;5.30;99.90;;;;;;5091843;28;20273;-69
2021/10/23 05:23:50;;;;;;;2.67;1.63;;;5.40;99.90;;;;;;5091830;28;20185;-69
2021/10/23 05:26:16;;;;;;;3.03;1.30;;;5.40;99.90;;;;;;5092021;28;20614;-69
2021/10/23 05:28:41;;;;;;;2.03;1.73;;;5.40;99.90;;;;;;5091862;28;20451;-69
2021/10/23 05:31:07;;;;;;;7.30;1.83;;;5.40;99.90;;;;;;5092012;28;20181;-69
2021/10/23 05:33:32;;;;;;;1.47;1.10;;;5.40;99.90;;;;;;5091884;28;20174;-69
2021/10/23 05:35:58;;;;;;;4.40;1.50;;;5.30;99.90;;;;;;5091894;28;20173;-69
2021/10/23 05:38:24;;;;;;;2.33;1.00;;;5.30;99.90;;;;;;5090750;28;20201;-69
2021/10/23 05:40:49;;;;;;;2.53;1.37;;;5.20;99.90;;;;;;5091701;28;20180;-69
2021/10/23 05:43:14;;;;;;;1.57;1.47;;;5.20;99.90;;;;;;5091535;28;20252;-69
2021/10/23 05:45:41;;;;;;;1.10;1.00;;;5.20;99.90;;;;;;5092321;28;20178;-70
2021/10/23 05:48:06;;;;;;;1.20;1.00;;;5.20;99.90;;;;;;5091413;28;20193;-69
2021/10/23 05:50:32;;;;;;;1.33;0.87;;;5.30;99.90;;;;;;5091560;28;20707;-69
2021/10/23 05:52:57;;;;;;;3.63;1.53;;;5.20;99.90;;;;;;5091046;28;20252;-69
2021/10/23 05:55:23;;;;;;;2.13;1.33;;;5.30;99.90;;;;;;5091171;28;20201;-69
2021/10/23 05:57:48;;;;;;;1.70;0.90;;;5.20;99.90;;;;;;5090982;28;20197;-69
2021/10/23 06:00:15;;;;;;;2.30;1.00;;;5.20;99.90;;;;;;5090920;28;20170;-69
2021/10/23 06:02:41;;;;;;;2.40;1.60;;;5.20;99.90;;;;;;5089585;28;20173;-69
2021/10/23 06:05:07;;;;;;;1.63;1.10;;;5.10;99.90;;;;;;5090847;28;20437;-69
2021/10/23 06:07:41;;;;;;;1.80;1.10;;;5.10;99.90;;;;;;5091212;28;20483;-69
2021/10/23 06:10:08;;;;;;;2.20;1.07;;;5.30;99.90;;;;;;5091448;28;20819;-69
2021/10/23 06:12:35;;;;;;;0.77;0.77;;;5.30;99.90;;;;;;5091406;28;20403;-70
2021/10/23 06:15:00;;;;;;;2.90;2.00;;;5.30;99.90;;;;;;5089058;28;20515;-70
2021/10/23 06:17:27;;;;;;;1.30;1.20;;;5.30;99.90;;;;;;5071387;28;20535;-70
2021/10/23 06:19:53;;;;;;;3.63;1.60;;;5.30;99.90;;;;;;5080545;28;20676;-70
2021/10/23 06:22:19;;;;;;;3.50;1.07;;;5.40;99.90;;;;;;5092530;28;20439;-70
2021/10/23 06:24:44;;;;;;;1.37;0.80;;;5.40;99.90;;;;;;5091794;28;20195;-70
2021/10/23 06:27:10;;;;;;;0.80;0.80;;;5.40;99.90;;;;;;5092708;28;20426;-70
2021/10/23 06:29:36;;;;;;;1.47;1.10;;;5.50;99.90;;;;;;5090312;28;20201;-70
2021/10/23 06:32:02;;;;;;;2.97;1.10;;;5.50;99.90;;;;;;5091026;28;20238;-70
2021/10/23 06:34:28;;;;;;;1.00;0.97;;;5.50;99.90;;;;;;5090699;28;20166;-71
2021/10/23 06:36:54;;;;;;;5.67;1.40;;;5.60;99.90;;;;;;5090359;28;20456;-70
2021/10/23 06:39:19;;;;;;;1.13;1.03;;;5.60;99.90;;;;;;5089498;28;20408;-70
2021/10/23 06:41:45;;;;;;;1.60;1.10;;;5.60;99.90;;;;;;5090732;28;20822;-70
2021/10/23 06:44:11;;;;;;;2.00;1.60;;;5.70;99.90;;;;;;5090790;28;20244;-70
2021/10/23 06:46:37;;;;;;;2.63;1.23;;;5.80;99.90;;;;;;5090368;28;20180;-70
2021/10/23 06:49:04;;;;;;;8.90;2.40;;;5.80;99.90;;;;;;5091549;28;20892;-70
2021/10/23 06:51:30;;;;;;;3.63;1.33;;;5.90;99.90;;;;;;5094619;28;20747;-70
2021/10/23 06:53:57;;;;;;;0.90;0.90;;;6.00;99.90;;;;;;5095976;28;20400;-70
2021/10/23 06:56:23;;;;;;;1.00;0.93;;;6.10;99.90;;;;;;5094412;28;20180;-71
2021/10/23 06:58:49;;;;;;;6.60;2.73;;;6.50;99.90;;;;;;5093678;28;20850;-70
2021/10/23 07:01:14;;;;;;;3.43;1.93;;;7.20;99.90;;;;;;5094326;28;20405;-70
2021/10/23 07:03:40;;;;;;;2.40;2.10;;;7.40;99.90;;;;;;5094180;28;20918;-70
2021/10/23 07:06:06;;;;;;;2.43;1.40;;;7.50;99.90;;;;;;5093883;28;20180;-70
2021/10/23 07:08:31;;;;;;;2.43;1.67;;;7.80;99.90;;;;;;5094540;28;20767;-70
2021/10/23 07:10:56;;;;;;;4.97;1.70;;;7.70;99.90;;;;;;5094321;28;20174;-70
2021/10/23 07:13:22;;;;;;;2.40;1.43;;;7.80;99.90;;;;;;5093916;28;20266;-70
2021/10/23 07:15:48;;;;;;;5.30;2.03;;;8.40;99.90;;;;;;5093791;28;20185;-69
2021/10/23 07:18:13;;;;;;;5.67;1.80;;;8.20;99.90;;;;;;5094091;28;20206;-69
2021/10/23 07:20:39;;;;;;;4.63;2.67;;;7.90;99.90;;;;;;5094287;28;20190;-70
2021/10/23 07:23:04;;;;;;;2.73;1.50;;;8.90;99.90;;;;;;5094698;28;20261;-70
2021/10/23 07:25:30;;;;;;;3.40;1.40;;;9.10;99.90;;;;;;5094202;28;20166;-70
2021/10/23 07:27:56;;;;;;;3.33;1.00;;;9.30;99.90;;;;;;5088025;28;20225;-70
2021/10/23 07:30:21;;;;;;;2.87;1.40;;;8.80;99.90;;;;;;5093758;28;20799;-70
2021/10/23 07:32:48;;;;;;;2.90;1.13;;;9.40;99.90;;;;;;5093183;28;20261;-70
2021/10/23 07:35:14;;;;;;;3.50;1.53;;;9.70;99.90;;;;;;5094006;28;20659;-70
2021/10/23 07:37:40;;;;;;;1.27;0.97;;;9.80;99.90;;;;;;5093634;28;20432;-70
2021/10/23 07:40:08;;;;;;;1.77;1.20;;;9.30;99.90;;;;;;5093723;28;20408;-70
2021/10/23 07:42:35;;;;;;;2.87;1.10;;;9.90;99.90;;;;;;5093148;28;20498;-70
2021/10/23 07:45:00;;;;;;;2.87;1.43;;;10.80;99.90;;;;;;5093684;28;20819;-70
2021/10/23 07:47:26;;;;;;;1.00;0.90;;;10.80;99.90;;;;;;5094550;28;20429;-72
2021/10/23 07:49:52;;;;;;;1.40;1.30;;;10.40;99.90;;;;;;5094732;28;20199;-72
2021/10/23 07:52:18;;;;;;;3.03;1.17;;;9.50;99.90;;;;;;5094628;28;20164;-72
2021/10/23 07:54:44;;;;;;;3.10;1.00;;;9.40;99.90;;;;;;5092941;28;20475;-73
2021/10/23 07:57:09;;;;;;;1.13;0.80;;;9.20;99.90;;;;;;5093726;28;20186;-71
2021/10/23 07:59:35;;;;;;;4.17;1.00;;;9.10;99.90;;;;;;5093689;28;20166;-73
2021/10/23 08:02:02;;;;;;;2.67;0.93;;;8.80;99.90;;;;;;5092418;28;20178;-73
2021/10/23 08:04:29;;;;;;;1.83;0.80;;;8.80;99.90;;;;;;5093269;28;20256;-72
2021/10/23 08:06:55;;;;;;;1.67;0.80;;;9.00;99.90;;;;;;5091275;28;20432;-73
2021/10/23 08:09:21;;;;;;;0.93;0.83;;;9.60;99.90;;;;;;5094206;28;20459;-74
2021/10/23 08:11:46;;;;;;;1.90;0.60;;;9.50;99.90;;;;;;5094405;28;20492;-74
2021/10/23 08:14:15;;;;;;;4.00;1.80;;;9.60;99.90;;;;;;5094396;28;20269;-71
2021/10/23 08:16:41;;;;;;;1.77;0.80;;;10.00;99.90;;;;;;5085128;28;20262;-73
2021/10/23 08:19:07;;;;;;;1.10;1.00;;;9.60;99.90;;;;;;5087920;28;20475;-73
2021/10/23 08:21:34;;;;;;;0.90;0.90;;;9.50;99.90;;;;;;5092202;28;20404;-71
2021/10/23 08:24:07;;;;;;;2.60;0.87;;;9.60;99.90;;;;;;5073136;28;20170;-72
2021/10/23 08:26:33;;;;;;;1.00;0.97;;;9.60;99.90;;;;;;5073287;28;20610;-71
2021/10/23 08:28:58;;;;;;;1.13;0.70;;;9.90;99.90;;;;;;5073446;28;20888;-72
2021/10/23 08:31:24;;;;;;;1.60;1.13;;;9.80;99.90;;;;;;5074216;28;20166;-73
2021/10/23 08:33:51;;;;;;;1.10;1.00;;;9.80;99.90;;;;;;5074044;28;20178;-71
2021/10/23 08:36:16;;;;;;;4.33;2.00;;;10.40;99.90;;;;;;5090184;28;20283;-70
2021/10/23 08:38:42;;;;;;;1.27;1.10;;;10.80;99.90;;;;;;5112498;28;20422;-71
2021/10/23 08:41:12;;;;;;;3.03;0.80;;;9.90;99.90;;;;;;5113775;28;20252;-73
2021/10/23 08:43:40;;;;;;;2.80;0.70;;;10.40;99.90;;;;;;5113614;28;20322;-73
2021/10/23 08:46:18;;;;;;;3.13;1.20;;;10.90;99.90;;;;;;5109903;28;20918;-73
2021/10/23 08:48:46;;;;;;;0.63;0.63;;;10.90;99.90;;;;;;5093758;28;20458;-72
2021/10/23 08:51:12;;;;;;;0.80;0.70;;;10.40;99.90;;;;;;5093649;28;20404;-72
2021/10/23 08:53:39;;;;;;;1.00;0.77;;;10.20;99.90;;;;;;5092984;28;20451;-72
2021/10/23 08:56:09;;;;;;;3.13;1.07;;;10.00;99.90;;;;;;5092679;28;20589;-73
2021/10/23 08:58:34;;;;;;;2.23;1.97;;;9.90;99.90;;;;;;5091722;28;20442;-73
2021/10/23 09:01:01;;;;;;;1.77;1.33;;;10.00;99.90;;;;;;5093311;28;20408;-74
2021/10/23 09:03:30;;;;;;;1.80;0.90;;;10.10;99.90;;;;;;5092929;28;20582;-73
2021/10/23 09:05:57;;;;;;;0.87;0.80;;;10.00;99.90;;;;;;5092949;28;20410;-73
2021/10/23 09:08:25;;;;;;;2.17;0.83;;;9.70;99.90;;;;;;5092802;28;20810;-73
2021/10/23 09:10:51;;;;;;;1.60;0.83;;;10.10;99.90;;;;;;5091769;28;20412;-74
2021/10/23 09:13:30;;;;;;;3.00;0.80;;;10.00;99.90;;;;;;5092365;28;20457;-73
2021/10/23 09:15:56;;;;;;;2.30;1.00;;;9.70;99.90;;;;;;5092804;28;20584;-73
2021/10/23 09:18:44;;;;;;;2.43;0.90;;;9.50;99.90;;;;;;5092545;28;20466;-72
2021/10/23 09:21:23;;;;;;;1.30;1.10;;;9.40;99.90;;;;;;5092398;28;20404;-73
2021/10/23 09:23:52;;;;;;;1.47;1.10;;;9.50;99.90;;;;;;5092684;28;20490;-73
2021/10/23 09:26:37;;;;;;;2.30;1.00;;;9.70;99.90;;;;;;5092549;28;20981;-73
2021/10/23 09:29:14;;;;;;;1.10;0.80;;;9.90;99.90;;;;;;5092284;28;20490;-73
2021/10/23 09:31:42;;;;;;;0.90;0.70;;;9.90;99.90;;;;;;5092347;28;20408;-72
2021/10/23 09:34:09;;;;;;;2.97;1.30;;;10.20;99.90;;;;;;5092345;28;20435;-73
2021/10/23 09:36:53;;;;;;;3.13;1.00;;;10.00;99.90;;;;;;5092811;28;20926;-73
2021/10/23 09:39:23;;;;;;;1.07;0.90;;;9.70;99.90;;;;;;5092253;28;20395;-74
2021/10/23 09:42:12;;;;;;;2.07;0.87;;;9.70;99.90;;;;;;5090690;28;20469;-72
2021/10/23 09:45:04;;;;;;;2.63;0.87;;;9.90;99.90;;;;;;5092263;28;20415;-73
2021/10/23 09:47:41;;;;;;;2.80;0.80;;;9.80;99.90;;;;;;5092036;28;21014;-73
2021/10/23 09:50:17;;;;;;;2.17;1.50;;;9.70;99.90;;;;;;5091989;28;20450;-73
2021/10/23 09:53:04;;;;;;;0.70;0.70;;;10.00;99.90;;;;;;5092120;28;20395;-72
2021/10/23 09:55:48;;;;;;;1.63;0.90;;;10.00;99.90;;;;;;5091987;28;20392;-73
2021/10/23 09:58:18;;;;;;;2.00;0.90;;;10.30;99.90;;;;;;5092243;28;21019;-74
2021/10/23 10:00:46;;;;;;;1.23;1.03;;;10.30;99.90;;;;;;5091913;28;20400;-73
2021/10/23 10:03:12;;;;;;;1.30;1.17;;;10.30;99.90;;;;;;5091896;28;20403;-73
2021/10/23 10:05:38;;;;;;;1.90;1.00;;;10.10;99.90;;;;;;5091839;28;20400;-73
2021/10/23 10:08:08;;;;;;;0.90;0.80;;;10.20;99.90;;;;;;5092083;28;20217;-73
2021/10/23 10:10:45;;;;;;;1.53;0.80;;;10.40;99.90;;;;;;5091628;28;20400;-73
2021/10/23 10:13:13;;;;;;;1.20;0.60;;;10.30;99.90;;;;;;5091444;28;20418;-73
2021/10/23 10:15:46;;;;;;;1.33;0.80;;;10.40;99.90;;;;;;5091606;28;20396;-72
2021/10/23 10:18:15;;;;;;;2.40;1.17;;;10.60;99.90;;;;;;5091478;28;20443;-71
2021/10/23 10:20:44;;;;;;;0.80;0.70;;;10.70;99.90;;;;;;5091579;28;20453;-72
2021/10/23 10:23:11;;;;;;;3.50;1.00;;;10.70;99.90;;;;;;5091740;28;20922;-70
2021/10/23 10:25:39;;;;;;;0.80;0.70;;;10.60;99.90;;;;;;5095163;28;20472;-72
2021/10/23 10:28:13;;;;;;;1.30;1.20;;;10.50;99.90;;;;;;5095431;28;20425;-72
2021/10/23 10:30:42;;;;;;;2.30;0.90;;;10.70;99.90;;;;;;5097608;28;20395;-72
2021/10/23 10:33:54;;;;;;;0.93;0.70;;;10.60;99.90;;;;;;5094731;28;20431;-75
2021/10/23 10:36:35;;;;;;;3.90;0.70;;;10.30;99.90;;;;;;5095481;28;20410;-72
2021/10/23 10:39:57;;;;;;;1.63;0.83;;;10.30;99.90;;;;;;5095411;28;20407;-73
2021/10/23 10:45:33;;;;;;;0.90;0.73;;;10.60;99.90;;;;;;5095616;28;20445;-72
2021/10/23 10:48:09;;;;;;;1.93;1.00;;;10.50;99.90;;;;;;5095407;28;20415;-72
2021/10/23 10:50:42;;;;;;;1.73;1.10;;;10.60;99.90;;;;;;5095192;28;20810;-72
2021/10/23 10:53:24;;;;;;;1.53;0.87;;;10.70;99.90;;;;;;5094956;28;20393;-73
2021/10/23 10:55:55;;;;;;;2.10;0.90;;;10.60;99.90;;;;;;5095360;28;20395;-72
2021/10/23 10:58:39;;;;;;;1.23;1.13;;;10.40;99.90;;;;;;5095226;28;20498;-73
2021/10/23 11:01:10;;;;;;;1.27;0.90;;;10.60;99.90;;;;;;5095374;28;20947;-72
2021/10/23 11:03:39;;;;;;;1.37;1.27;;;10.50;99.90;;;;;;5093614;28;20966;-73
2021/10/23 11:06:39;;;;;;;0.63;0.63;;;10.80;99.90;;;;;;5095249;28;20522;-73
2021/10/23 11:11:45;;;;;;;2.60;0.60;;;10.90;99.90;;;;;;5094797;28;20411;-73
2021/10/23 11:14:28;;;;;;;4.00;1.07;;;11.00;99.90;;;;;;5094865;28;20396;-73
2021/10/23 11:16:57;;;;;;;4.87;1.20;;;11.20;99.90;;;;;;5094729;28;20509;-73
2021/10/23 11:19:47;;;;;;;2.87;0.80;;;11.10;99.90;;;;;;5094472;28;20427;-73
2021/10/23 11:22:14;;;;;;;2.60;1.10;;;11.20;99.90;;;;;;5094085;28;20408;-73
2021/10/23 11:25:09;;;;;;;1.20;0.70;;;11.30;99.90;;;;;;5094185;28;20408;-73
2021/10/23 11:27:48;;;;;;;1.63;1.43;;;11.50;99.90;;;;;;5094269;28;20431;-73
2021/10/23 11:30:26;;;;;;;2.50;1.27;;;11.50;99.90;;;;;;5094194;28;20443;-72
2021/10/23 11:32:58;;;;;;;1.40;0.83;;;11.70;99.90;;;;;;5094088;28;20407;-72
2021/10/23 11:35:37;;;;;;;0.60;0.60;;;11.70;99.90;;;;;;5094244;28;20436;-72
2021/10/23 11:38:05;;;;;;;0.77;0.77;;;11.50;99.90;;;;;;5094382;28;20837;-72
2021/10/23 11:40:31;;;;;;;2.53;1.23;;;11.60;99.90;;;;;;5094111;28;20404;-72
2021/10/23 11:42:56;;;;;;;0.80;0.77;;;11.60;99.90;;;;;;5094132;28;20452;-72
2021/10/23 11:45:30;;;;;;;2.97;1.07;;;11.50;99.90;;;;;;5088163;28;21035;-70
2021/10/23 11:47:58;;;;;;;1.60;1.07;;;11.70;99.90;;;;;;5078241;28;20190;-72
2021/10/23 11:50:26;;;;;;;1.43;0.83;;;11.60;99.90;;;;;;5076229;28;20936;-72
2021/10/23 11:52:57;;;;;;;1.90;0.73;;;11.70;99.90;;;;;;5093840;28;20414;-72
2021/10/23 11:55:30;;;;;;;0.60;0.60;;;11.70;99.90;;;;;;5093840;28;20499;-72
2021/10/23 11:57:57;;;;;;;5.07;0.83;;;11.80;99.90;;;;;;5093968;28;20773;-73
2021/10/23 12:00:23;;;;;;;1.00;0.90;;;11.80;99.90;;;;;;5092677;28;20439;-72
2021/10/23 12:03:00;;;;;;;3.40;1.27;;;11.70;99.90;;;;;;5089177;28;20835;-72
2021/10/23 12:05:39;;;;;;;0.90;0.80;;;11.40;99.90;;;;;;5092242;28;20184;-72
2021/10/23 12:08:24;;;;;;;1.90;1.10;;;11.50;99.90;;;;;;5093391;28;20517;-73
2021/10/23 12:11:09;;;;;;;1.37;0.80;;;11.50;99.90;;;;;;5093464;28;20419;-73
2021/10/23 12:14:02;;;;;;;0.93;0.83;;;11.60;99.90;;;;;;5093217;28;20444;-73
2021/10/23 12:16:42;;;;;;;2.10;0.90;;;11.60;99.90;;;;;;5093243;28;20453;-73
2021/10/23 12:19:15;;;;;;;1.53;1.00;;;11.60;99.90;;;;;;5093080;28;20435;-72
2021/10/23 12:22:03;;;;;;;1.43;0.70;;;11.50;99.90;;;;;;5092890;28;20400;-73
2021/10/23 12:24:34;;;;;;;2.97;1.00;;;11.50;99.90;;;;;;5089039;28;20427;-73
2021/10/23 12:27:13;;;;;;;2.47;0.80;;;11.40;99.90;;;;;;5092965;28;20502;-72
2021/10/23 12:29:48;;;;;;;2.03;0.80;;;11.70;99.90;;;;;;5092915;28;20533;-73
2021/10/23 12:32:16;;;;;;;0.77;0.67;;;11.70;99.90;;;;;;5093422;28;20408;-72
2021/10/23 12:34:50;;;;;;;2.50;0.83;;;11.70;99.90;;;;;;5092712;28;20438;-72
2021/10/23 12:37:31;;;;;;;0.60;0.50;;;12.10;99.90;;;;;;5092899;28;20419;-72
2021/10/23 12:40:11;;;;;;;2.40;0.90;;;11.90;99.90;;;;;;5093027;28;20739;-73
2021/10/23 12:42:38;;;;;;;1.00;0.70;;;12.00;99.90;;;;;;5091942;28;20412;-73
2021/10/23 12:45:06;;;;;;;1.97;0.67;;;11.80;99.90;;;;;;5092897;28;20400;-75
2021/10/23 12:47:32;;;;;;;5.60;0.80;;;11.80;99.90;;;;;;5092516;28;20908;-74
2021/10/23 12:49:57;;;;;;;1.57;0.90;;;12.00;99.90;;;;;;5093043;28;20440;-75
2021/10/23 12:52:23;;;;;;;2.60;1.00;;;12.30;99.90;;;;;;5092921;28;20925;-74
2021/10/23 12:54:49;;;;;;;5.27;1.10;;;12.60;99.90;;;;;;5092677;28;20164;-73
2021/10/23 12:57:14;;;;;;;1.60;0.83;;;12.40;99.90;;;;;;5092980;28;20510;-73
2021/10/23 12:59:40;;;;;;;1.37;0.70;;;12.40;99.90;;;;;;5093060;28;20185;-74
2021/10/23 13:02:06;;;;;;;0.80;0.80;;;12.20;99.90;;;;;;5092751;28;20165;-74
2021/10/23 13:04:31;;;;;;;2.80;1.03;;;12.20;99.90;;;;;;5092666;28;20181;-75